sensor_id;sensor_type;location;lat;lon;timestamp;P1;durP1;ratioP1;P2;durP2;ratioP2
20069;SDS011;10195;50.868;4.382;2023-05-20T00:01:01;8.83;;;4.70;;
20069;SDS011;10195;50.868;4.382;2023-05-20T00:03:27;7.23;;;4.30;;
20069;SDS011;10195;50.868;4.382;2023-05-20T00:05:53;12.87;;;4.07;;
20069;SDS011;10195;50.868;4.382;2023-05-20T00:08:19;10.90;;;4.30;;
20069;SDS011;10195;50.868;4.382;2023-05-20T00:10:45;8.20;;;4.23;;
20069;SDS011;10195;50.868;4.382;2023-05-20T00:13:11;7.33;;;4.63;;
20069;SDS011;10195;50.868;4.382;2023-05-20T00:15:36;12.77;;;4.87;;
20069;SDS011;10195;50.868;4.382;2023-05-20T00:18:03;10.33;;;4.40;;
20069;SDS011;10195;50.868;4.382;2023-05-20T00:20:29;11.53;;;4.40;;
20069;SDS011;10195;50.868;4.382;2023-05-20T00:22:55;12.63;;;4.37;;
20069;SDS011;10195;50.868;4.382;2023-05-20T00:25:21;16.33;;;4.60;;
20069;SDS011;10195;50.868;4.382;2023-05-20T00:27:46;13.67;;;4.80;;
20069;SDS011;10195;50.868;4.382;2023-05-20T00:30:12;15.33;;;4.53;;
20069;SDS011;10195;50.868;4.382;2023-05-20T00:32:38;8.10;;;4.60;;
20069;SDS011;10195;50.868;4.382;2023-05-20T00:35:04;10.53;;;4.73;;
20069;SDS011;10195;50.868;4.382;2023-05-20T00:37:30;8.57;;;3.70;;
20069;SDS011;10195;50.868;4.382;2023-05-20T00:39:56;7.47;;;4.13;;
20069;SDS011;10195;50.868;4.382;2023-05-20T00:42:22;15.93;;;4.90;;
20069;SDS011;10195;50.868;4.382;2023-05-20T00:44:52;10.33;;;4.93;;
20069;SDS011;10195;50.868;4.382;2023-05-20T00:47:19;11.97;;;4.40;;
20069;SDS011;10195;50.868;4.382;2023-05-20T00:49:48;11.53;;;5.03;;
20069;SDS011;10195;50.868;4.382;2023-05-20T00:52:15;15.37;;;4.80;;
20069;SDS011;10195;50.868;4.382;2023-05-20T00:54:42;16.33;;;5.27;;
20069;SDS011;10195;50.868;4.382;2023-05-20T00:57:09;11.67;;;4.50;;
20069;SDS011;10195;50.868;4.382;2023-05-20T00:59:35;11.77;;;4.90;;
20069;SDS011;10195;50.868;4.382;2023-05-20T01:02:05;11.00;;;4.97;;
20069;SDS011;10195;50.868;4.382;2023-05-20T01:04:33;6.83;;;4.40;;
20069;SDS011;10195;50.868;4.382;2023-05-20T01:07:00;11.07;;;4.67;;
20069;SDS011;10195;50.868;4.382;2023-05-20T01:09:28;14.03;;;5.50;;
20069;SDS011;10195;50.868;4.382;2023-05-20T01:14:28;10.37;;;4.90;;
20069;SDS011;10195;50.868;4.382;2023-05-20T01:17:00;10.50;;;4.33;;
20069;SDS011;10195;50.868;4.382;2023-05-20T01:22:08;14.20;;;5.20;;
20069;SDS011;10195;50.868;4.382;2023-05-20T01:24:41;8.77;;;4.23;;
20069;SDS011;10195;50.868;4.382;2023-05-20T01:27:11;15.17;;;4.77;;
20069;SDS011;10195;50.868;4.382;2023-05-20T01:29:38;17.93;;;5.17;;
20069;SDS011;10195;50.868;4.382;2023-05-20T01:32:38;8.87;;;4.60;;
20069;SDS011;10195;50.868;4.382;2023-05-20T01:35:00;10.90;;;4.60;;
20069;SDS011;10195;50.868;4.382;2023-05-20T01:37:28;10.67;;;4.13;;
20069;SDS011;10195;50.868;4.382;2023-05-20T01:39:55;13.13;;;4.93;;
20069;SDS011;10195;50.868;4.382;2023-05-20T01:42:21;8.87;;;4.33;;
20069;SDS011;10195;50.868;4.382;2023-05-20T01:44:48;9.90;;;4.90;;
20069;SDS011;10195;50.868;4.382;2023-05-20T01:47:15;9.07;;;4.70;;
20069;SDS011;10195;50.868;4.382;2023-05-20T01:49:40;11.33;;;4.60;;
20069;SDS011;10195;50.868;4.382;2023-05-20T01:52:06;9.33;;;3.93;;
20069;SDS011;10195;50.868;4.382;2023-05-20T01:54:32;14.50;;;5.00;;
20069;SDS011;10195;50.868;4.382;2023-05-20T01:56:57;14.03;;;5.00;;
20069;SDS011;10195;50.868;4.382;2023-05-20T01:59:23;8.87;;;4.67;;
20069;SDS011;10195;50.868;4.382;2023-05-20T02:01:49;13.17;;;4.07;;
20069;SDS011;10195;50.868;4.382;2023-05-20T02:04:15;11.63;;;4.53;;
20069;SDS011;10195;50.868;4.382;2023-05-20T02:06:42;10.50;;;4.43;;
20069;SDS011;10195;50.868;4.382;2023-05-20T02:09:08;8.80;;;4.47;;
20069;SDS011;10195;50.868;4.382;2023-05-20T02:11:34;9.90;;;4.57;;
20069;SDS011;10195;50.868;4.382;2023-05-20T02:14:00;13.07;;;5.00;;
20069;SDS011;10195;50.868;4.382;2023-05-20T02:16:25;10.07;;;4.47;;
20069;SDS011;10195;50.868;4.382;2023-05-20T02:18:51;10.73;;;4.00;;
20069;SDS011;10195;50.868;4.382;2023-05-20T02:21:17;12.27;;;4.47;;
20069;SDS011;10195;50.868;4.382;2023-05-20T02:23:43;8.57;;;4.20;;
20069;SDS011;10195;50.868;4.382;2023-05-20T02:26:09;10.10;;;4.03;;
20069;SDS011;10195;50.868;4.382;2023-05-20T02:28:34;7.60;;;3.80;;
20069;SDS011;10195;50.868;4.382;2023-05-20T02:31:04;9.50;;;4.13;;
20069;SDS011;10195;50.868;4.382;2023-05-20T02:33:30;7.23;;;4.40;;
20069;SDS011;10195;50.868;4.382;2023-05-20T02:35:56;6.80;;;4.00;;
20069;SDS011;10195;50.868;4.382;2023-05-20T02:38:21;5.93;;;3.83;;
20069;SDS011;10195;50.868;4.382;2023-05-20T02:40:47;10.13;;;4.00;;
20069;SDS011;10195;50.868;4.382;2023-05-20T02:43:13;7.10;;;3.80;;
20069;SDS011;10195;50.868;4.382;2023-05-20T02:45:38;6.03;;;3.60;;
20069;SDS011;10195;50.868;4.382;2023-05-20T02:48:04;6.87;;;4.00;;
20069;SDS011;10195;50.868;4.382;2023-05-20T02:50:30;8.77;;;4.03;;
20069;SDS011;10195;50.868;4.382;2023-05-20T02:52:56;8.93;;;4.73;;
20069;SDS011;10195;50.868;4.382;2023-05-20T02:55:22;9.20;;;4.03;;
20069;SDS011;10195;50.868;4.382;2023-05-20T02:57:47;8.70;;;3.90;;
20069;SDS011;10195;50.868;4.382;2023-05-20T03:00:13;8.80;;;4.10;;
20069;SDS011;10195;50.868;4.382;2023-05-20T03:02:40;7.40;;;3.70;;
20069;SDS011;10195;50.868;4.382;2023-05-20T03:05:06;17.07;;;4.40;;
20069;SDS011;10195;50.868;4.382;2023-05-20T03:07:33;8.90;;;3.83;;
20069;SDS011;10195;50.868;4.382;2023-05-20T03:10:00;8.20;;;3.80;;
20069;SDS011;10195;50.868;4.382;2023-05-20T03:12:27;10.40;;;3.77;;
20069;SDS011;10195;50.868;4.382;2023-05-20T03:14:53;9.33;;;3.80;;
20069;SDS011;10195;50.868;4.382;2023-05-20T03:17:22;10.60;;;4.30;;
20069;SDS011;10195;50.868;4.382;2023-05-20T03:19:47;7.17;;;3.80;;
20069;SDS011;10195;50.868;4.382;2023-05-20T03:22:13;8.67;;;4.17;;
20069;SDS011;10195;50.868;4.382;2023-05-20T03:24:39;11.23;;;3.77;;
20069;SDS011;10195;50.868;4.382;2023-05-20T03:27:04;11.70;;;3.47;;
20069;SDS011;10195;50.868;4.382;2023-05-20T03:29:30;14.97;;;4.00;;
20069;SDS011;10195;50.868;4.382;2023-05-20T03:31:57;9.80;;;4.43;;
20069;SDS011;10195;50.868;4.382;2023-05-20T03:34:23;8.37;;;3.90;;
20069;SDS011;10195;50.868;4.382;2023-05-20T03:36:49;6.97;;;3.90;;
20069;SDS011;10195;50.868;4.382;2023-05-20T03:39:15;6.60;;;3.43;;
20069;SDS011;10195;50.868;4.382;2023-05-20T03:41:41;7.43;;;4.13;;
20069;SDS011;10195;50.868;4.382;2023-05-20T03:44:06;9.63;;;3.77;;
20069;SDS011;10195;50.868;4.382;2023-05-20T03:46:32;11.13;;;3.87;;
20069;SDS011;10195;50.868;4.382;2023-05-20T03:48:58;18.33;;;4.50;;
20069;SDS011;10195;50.868;4.382;2023-05-20T03:51:26;16.00;;;4.60;;
20069;SDS011;10195;50.868;4.382;2023-05-20T03:53:52;7.33;;;4.03;;
20069;SDS011;10195;50.868;4.382;2023-05-20T03:56:17;11.10;;;4.50;;
20069;SDS011;10195;50.868;4.382;2023-05-20T03:58:43;14.97;;;4.43;;
20069;SDS011;10195;50.868;4.382;2023-05-20T04:01:09;12.63;;;4.20;;
20069;SDS011;10195;50.868;4.382;2023-05-20T04:03:37;11.67;;;4.23;;
20069;SDS011;10195;50.868;4.382;2023-05-20T04:06:02;12.73;;;4.60;;
20069;SDS011;10195;50.868;4.382;2023-05-20T04:08:28;8.23;;;4.90;;
20069;SDS011;10195;50.868;4.382;2023-05-20T04:10:54;9.77;;;4.63;;
20069;SDS011;10195;50.868;4.382;2023-05-20T04:13:21;9.23;;;4.33;;
20069;SDS011;10195;50.868;4.382;2023-05-20T04:15:49;10.83;;;4.20;;
20069;SDS011;10195;50.868;4.382;2023-05-20T04:18:16;14.03;;;4.50;;
20069;SDS011;10195;50.868;4.382;2023-05-20T04:20:42;11.03;;;4.77;;
20069;SDS011;10195;50.868;4.382;2023-05-20T04:23:08;12.03;;;4.60;;
20069;SDS011;10195;50.868;4.382;2023-05-20T04:25:34;12.00;;;4.13;;
20069;SDS011;10195;50.868;4.382;2023-05-20T04:28:00;9.63;;;4.23;;
20069;SDS011;10195;50.868;4.382;2023-05-20T04:30:26;6.27;;;4.23;;
20069;SDS011;10195;50.868;4.382;2023-05-20T04:32:52;10.50;;;4.80;;
20069;SDS011;10195;50.868;4.382;2023-05-20T04:35:18;12.87;;;4.63;;
20069;SDS011;10195;50.868;4.382;2023-05-20T04:37:44;15.03;;;4.43;;
20069;SDS011;10195;50.868;4.382;2023-05-20T04:40:13;8.63;;;3.73;;
20069;SDS011;10195;50.868;4.382;2023-05-20T04:42:38;12.63;;;4.50;;
20069;SDS011;10195;50.868;4.382;2023-05-20T04:45:04;11.33;;;4.80;;
20069;SDS011;10195;50.868;4.382;2023-05-20T04:47:33;9.70;;;4.47;;
20069;SDS011;10195;50.868;4.382;2023-05-20T04:50:02;11.03;;;4.70;;
20069;SDS011;10195;50.868;4.382;2023-05-20T04:52:29;12.87;;;4.63;;
20069;SDS011;10195;50.868;4.382;2023-05-20T04:54:55;14.10;;;4.50;;
20069;SDS011;10195;50.868;4.382;2023-05-20T04:57:22;12.73;;;4.57;;
20069;SDS011;10195;50.868;4.382;2023-05-20T04:59:49;6.60;;;4.40;;
20069;SDS011;10195;50.868;4.382;2023-05-20T05:02:16;11.73;;;4.53;;
20069;SDS011;10195;50.868;4.382;2023-05-20T05:04:42;10.60;;;4.70;;
20069;SDS011;10195;50.868;4.382;2023-05-20T05:07:07;15.80;;;4.73;;
20069;SDS011;10195;50.868;4.382;2023-05-20T05:09:33;13.37;;;4.60;;
20069;SDS011;10195;50.868;4.382;2023-05-20T05:11:59;9.57;;;4.77;;
20069;SDS011;10195;50.868;4.382;2023-05-20T05:14:25;10.27;;;4.67;;
20069;SDS011;10195;50.868;4.382;2023-05-20T05:16:50;14.90;;;5.07;;
20069;SDS011;10195;50.868;4.382;2023-05-20T05:19:16;10.93;;;5.27;;
20069;SDS011;10195;50.868;4.382;2023-05-20T05:21:42;9.47;;;4.90;;
20069;SDS011;10195;50.868;4.382;2023-05-20T05:24:07;10.27;;;4.40;;
20069;SDS011;10195;50.868;4.382;2023-05-20T05:26:33;10.13;;;4.20;;
20069;SDS011;10195;50.868;4.382;2023-05-20T05:28:58;11.10;;;4.40;;
20069;SDS011;10195;50.868;4.382;2023-05-20T05:31:24;13.77;;;4.53;;
20069;SDS011;10195;50.868;4.382;2023-05-20T05:33:50;10.60;;;3.90;;
20069;SDS011;10195;50.868;4.382;2023-05-20T05:36:15;8.17;;;3.53;;
20069;SDS011;10195;50.868;4.382;2023-05-20T05:38:41;10.17;;;4.20;;
20069;SDS011;10195;50.868;4.382;2023-05-20T05:41:08;8.63;;;4.10;;
20069;SDS011;10195;50.868;4.382;2023-05-20T05:43:33;10.97;;;4.73;;
20069;SDS011;10195;50.868;4.382;2023-05-20T05:45:59;11.90;;;4.70;;
20069;SDS011;10195;50.868;4.382;2023-05-20T05:48:25;9.27;;;4.10;;
20069;SDS011;10195;50.868;4.382;2023-05-20T05:50:51;9.60;;;4.10;;
20069;SDS011;10195;50.868;4.382;2023-05-20T05:53:16;6.20;;;3.42;;
20069;SDS011;10195;50.868;4.382;2023-05-20T05:55:42;8.65;;;4.30;;
20069;SDS011;10195;50.868;4.382;2023-05-20T05:58:10;11.93;;;4.20;;
20069;SDS011;10195;50.868;4.382;2023-05-20T06:00:36;12.00;;;4.45;;
20069;SDS011;10195;50.868;4.382;2023-05-20T06:03:02;11.05;;;4.35;;
20069;SDS011;10195;50.868;4.382;2023-05-20T06:05:27;8.38;;;4.00;;
20069;SDS011;10195;50.868;4.382;2023-05-20T06:07:53;7.43;;;4.20;;
20069;SDS011;10195;50.868;4.382;2023-05-20T06:10:19;11.83;;;4.03;;
20069;SDS011;10195;50.868;4.382;2023-05-20T06:12:45;9.67;;;3.83;;
20069;SDS011;10195;50.868;4.382;2023-05-20T06:15:10;10.52;;;3.92;;
20069;SDS011;10195;50.868;4.382;2023-05-20T06:17:36;9.30;;;4.03;;
20069;SDS011;10195;50.868;4.382;2023-05-20T06:20:02;14.20;;;4.68;;
20069;SDS011;10195;50.868;4.382;2023-05-20T06:22:28;10.98;;;4.68;;
20069;SDS011;10195;50.868;4.382;2023-05-20T06:24:54;8.02;;;3.90;;
20069;SDS011;10195;50.868;4.382;2023-05-20T06:27:20;13.23;;;4.05;;
20069;SDS011;10195;50.868;4.382;2023-05-20T06:29:47;9.48;;;3.88;;
20069;SDS011;10195;50.868;4.382;2023-05-20T06:32:12;9.88;;;4.55;;
20069;SDS011;10195;50.868;4.382;2023-05-20T06:34:38;8.70;;;4.03;;
20069;SDS011;10195;50.868;4.382;2023-05-20T06:37:03;11.27;;;4.40;;
20069;SDS011;10195;50.868;4.382;2023-05-20T06:39:31;5.57;;;3.65;;
20069;SDS011;10195;50.868;4.382;2023-05-20T06:41:57;5.03;;;3.65;;
20069;SDS011;10195;50.868;4.382;2023-05-20T06:44:22;8.55;;;4.43;;
20069;SDS011;10195;50.868;4.382;2023-05-20T06:46:48;10.20;;;4.95;;
20069;SDS011;10195;50.868;4.382;2023-05-20T06:49:14;8.48;;;4.43;;
20069;SDS011;10195;50.868;4.382;2023-05-20T06:51:39;6.97;;;3.50;;
20069;SDS011;10195;50.868;4.382;2023-05-20T06:54:05;8.00;;;3.35;;
20069;SDS011;10195;50.868;4.382;2023-05-20T06:56:30;7.25;;;3.65;;
20069;SDS011;10195;50.868;4.382;2023-05-20T06:58:56;9.63;;;3.97;;
20069;SDS011;10195;50.868;4.382;2023-05-20T07:01:22;8.00;;;3.80;;
20069;SDS011;10195;50.868;4.382;2023-05-20T07:03:47;5.22;;;3.45;;
20069;SDS011;10195;50.868;4.382;2023-05-20T07:06:13;9.57;;;2.75;;
20069;SDS011;10195;50.868;4.382;2023-05-20T07:08:39;7.50;;;4.20;;
20069;SDS011;10195;50.868;4.382;2023-05-20T07:11:05;7.13;;;4.20;;
20069;SDS011;10195;50.868;4.382;2023-05-20T07:13:30;5.97;;;4.00;;
20069;SDS011;10195;50.868;4.382;2023-05-20T07:15:56;8.00;;;3.65;;
20069;SDS011;10195;50.868;4.382;2023-05-20T07:18:22;8.48;;;3.15;;
20069;SDS011;10195;50.868;4.382;2023-05-20T07:20:47;8.02;;;4.20;;
20069;SDS011;10195;50.868;4.382;2023-05-20T07:23:13;7.43;;;3.80;;
20069;SDS011;10195;50.868;4.382;2023-05-20T07:25:39;10.60;;;4.30;;
20069;SDS011;10195;50.868;4.382;2023-05-20T07:28:04;6.70;;;3.63;;
20069;SDS011;10195;50.868;4.382;2023-05-20T07:30:30;7.25;;;3.70;;
20069;SDS011;10195;50.868;4.382;2023-05-20T07:32:56;9.50;;;3.97;;
20069;SDS011;10195;50.868;4.382;2023-05-20T07:35:21;4.50;;;2.90;;
20069;SDS011;10195;50.868;4.382;2023-05-20T07:37:48;10.23;;;3.88;;
20069;SDS011;10195;50.868;4.382;2023-05-20T07:40:14;5.80;;;4.18;;
20069;SDS011;10195;50.868;4.382;2023-05-20T07:42:40;9.75;;;4.07;;
20069;SDS011;10195;50.868;4.382;2023-05-20T07:45:06;4.13;;;2.72;;
20069;SDS011;10195;50.868;4.382;2023-05-20T07:47:32;6.72;;;3.80;;
20069;SDS011;10195;50.868;4.382;2023-05-20T07:49:58;8.27;;;3.72;;
20069;SDS011;10195;50.868;4.382;2023-05-20T07:52:23;5.38;;;3.55;;
20069;SDS011;10195;50.868;4.382;2023-05-20T07:54:49;5.32;;;3.97;;
20069;SDS011;10195;50.868;4.382;2023-05-20T07:57:15;6.95;;;3.88;;
20069;SDS011;10195;50.868;4.382;2023-05-20T07:59:40;6.68;;;3.58;;
20069;SDS011;10195;50.868;4.382;2023-05-20T08:02:06;9.35;;;3.67;;
20069;SDS011;10195;50.868;4.382;2023-05-20T08:04:32;5.68;;;3.38;;
20069;SDS011;10195;50.868;4.382;2023-05-20T08:06:59;10.77;;;3.40;;
20069;SDS011;10195;50.868;4.382;2023-05-20T08:09:25;6.32;;;2.45;;
20069;SDS011;10195;50.868;4.382;2023-05-20T08:11:50;7.38;;;2.67;;
20069;SDS011;10195;50.868;4.382;2023-05-20T08:14:16;8.35;;;3.25;;
20069;SDS011;10195;50.868;4.382;2023-05-20T08:16:42;4.80;;;2.83;;
20069;SDS011;10195;50.868;4.382;2023-05-20T08:19:07;7.82;;;3.17;;
20069;SDS011;10195;50.868;4.382;2023-05-20T08:21:33;9.73;;;3.03;;
20069;SDS011;10195;50.868;4.382;2023-05-20T08:23:59;11.80;;;3.03;;
20069;SDS011;10195;50.868;4.382;2023-05-20T08:26:25;9.48;;;3.00;;
20069;SDS011;10195;50.868;4.382;2023-05-20T08:28:50;6.78;;;3.00;;
20069;SDS011;10195;50.868;4.382;2023-05-20T08:31:16;3.67;;;2.30;;
20069;SDS011;10195;50.868;4.382;2023-05-20T08:33:42;5.60;;;2.70;;
20069;SDS011;10195;50.868;4.382;2023-05-20T08:36:08;8.82;;;2.90;;
20069;SDS011;10195;50.868;4.382;2023-05-20T08:38:34;7.72;;;2.80;;
20069;SDS011;10195;50.868;4.382;2023-05-20T08:41:00;4.40;;;2.20;;
20069;SDS011;10195;50.868;4.382;2023-05-20T08:43:26;8.38;;;2.80;;
20069;SDS011;10195;50.868;4.382;2023-05-20T08:45:52;4.55;;;2.85;;
20069;SDS011;10195;50.868;4.382;2023-05-20T08:48:18;5.80;;;3.17;;
20069;SDS011;10195;50.868;4.382;2023-05-20T08:50:49;6.63;;;2.90;;
20069;SDS011;10195;50.868;4.382;2023-05-20T08:53:16;8.35;;;2.90;;
20069;SDS011;10195;50.868;4.382;2023-05-20T08:55:55;6.55;;;3.15;;
20069;SDS011;10195;50.868;4.382;2023-05-20T08:58:26;3.45;;;2.22;;
20069;SDS011;10195;50.868;4.382;2023-05-20T09:00:55;10.95;;;3.00;;
20069;SDS011;10195;50.868;4.382;2023-05-20T09:03:22;6.00;;;2.78;;
20069;SDS011;10195;50.868;4.382;2023-05-20T09:05:49;5.05;;;3.35;;
20069;SDS011;10195;50.868;4.382;2023-05-20T09:08:15;5.00;;;2.58;;
20069;SDS011;10195;50.868;4.382;2023-05-20T09:10:41;5.50;;;2.83;;
20069;SDS011;10195;50.868;4.382;2023-05-20T09:13:07;8.35;;;3.00;;
20069;SDS011;10195;50.868;4.382;2023-05-20T09:15:34;3.83;;;1.92;;
20069;SDS011;10195;50.868;4.382;2023-05-20T09:18:04;10.23;;;3.30;;
20069;SDS011;10195;50.868;4.382;2023-05-20T09:20:32;6.03;;;2.25;;
20069;SDS011;10195;50.868;4.382;2023-05-20T09:22:59;4.68;;;3.30;;
20069;SDS011;10195;50.868;4.382;2023-05-20T09:25:26;8.90;;;3.20;;
20069;SDS011;10195;50.868;4.382;2023-05-20T09:27:52;9.93;;;2.97;;
20069;SDS011;10195;50.868;4.382;2023-05-20T09:30:19;4.80;;;2.80;;
20069;SDS011;10195;50.868;4.382;2023-05-20T09:32:51;6.97;;;2.50;;
20069;SDS011;10195;50.868;4.382;2023-05-20T09:35:24;5.35;;;3.03;;
20069;SDS011;10195;50.868;4.382;2023-05-20T09:37:51;4.88;;;2.72;;
20069;SDS011;10195;50.868;4.382;2023-05-20T09:40:25;6.40;;;2.75;;
20069;SDS011;10195;50.868;4.382;2023-05-20T09:42:56;6.40;;;2.75;;
20069;SDS011;10195;50.868;4.382;2023-05-20T09:45:28;7.95;;;2.80;;
20069;SDS011;10195;50.868;4.382;2023-05-20T09:47:54;12.07;;;2.85;;
20069;SDS011;10195;50.868;4.382;2023-05-20T09:50:21;5.72;;;2.50;;
20069;SDS011;10195;50.868;4.382;2023-05-20T09:52:49;8.40;;;2.60;;
20069;SDS011;10195;50.868;4.382;2023-05-20T09:55:17;6.80;;;2.53;;
20069;SDS011;10195;50.868;4.382;2023-05-20T09:57:44;5.28;;;2.42;;
20069;SDS011;10195;50.868;4.382;2023-05-20T10:00:10;3.92;;;2.28;;
20069;SDS011;10195;50.868;4.382;2023-05-20T10:02:39;7.78;;;2.60;;
20069;SDS011;10195;50.868;4.382;2023-05-20T10:05:10;3.47;;;2.05;;
20069;SDS011;10195;50.868;4.382;2023-05-20T10:10:18;7.38;;;2.50;;
20069;SDS011;10195;50.868;4.382;2023-05-20T10:13:03;5.68;;;2.28;;
20069;SDS011;10195;50.868;4.382;2023-05-20T10:21:01;5.18;;;2.72;;
20069;SDS011;10195;50.868;4.382;2023-05-20T10:23:27;5.30;;;2.47;;
20069;SDS011;10195;50.868;4.382;2023-05-20T10:25:54;11.05;;;2.80;;
20069;SDS011;10195;50.868;4.382;2023-05-20T10:28:30;9.57;;;2.35;;
20069;SDS011;10195;50.868;4.382;2023-05-20T10:30:58;12.95;;;3.10;;
20069;SDS011;10195;50.868;4.382;2023-05-20T10:33:25;11.25;;;2.72;;
20069;SDS011;10195;50.868;4.382;2023-05-20T10:35:53;5.63;;;2.58;;
20069;SDS011;10195;50.868;4.382;2023-05-20T10:38:26;3.92;;;2.80;;
20069;SDS011;10195;50.868;4.382;2023-05-20T10:40:52;4.15;;;2.40;;
20069;SDS011;10195;50.868;4.382;2023-05-20T10:43:25;3.80;;;2.72;;
20069;SDS011;10195;50.868;4.382;2023-05-20T10:45:54;6.72;;;2.72;;
20069;SDS011;10195;50.868;4.382;2023-05-20T10:48:28;9.68;;;3.20;;
20069;SDS011;10195;50.868;4.382;2023-05-20T10:50:59;4.32;;;2.60;;
20069;SDS011;10195;50.868;4.382;2023-05-20T10:53:28;6.00;;;2.40;;
20069;SDS011;10195;50.868;4.382;2023-05-20T10:55:55;5.47;;;2.90;;
20069;SDS011;10195;50.868;4.382;2023-05-20T10:58:22;6.05;;;2.50;;
20069;SDS011;10195;50.868;4.382;2023-05-20T11:00:50;11.27;;;2.95;;
20069;SDS011;10195;50.868;4.382;2023-05-20T11:03:17;8.10;;;3.20;;
20069;SDS011;10195;50.868;4.382;2023-05-20T11:05:46;3.40;;;2.20;;
20069;SDS011;10195;50.868;4.382;2023-05-20T11:08:13;4.55;;;2.83;;
20069;SDS011;10195;50.868;4.382;2023-05-20T11:10:40;11.77;;;3.53;;
20069;SDS011;10195;50.868;4.382;2023-05-20T11:13:06;6.47;;;3.08;;
20069;SDS011;10195;50.868;4.382;2023-05-20T11:15:33;6.22;;;3.08;;
20069;SDS011;10195;50.868;4.382;2023-05-20T11:18:03;6.85;;;2.65;;
20069;SDS011;10195;50.868;4.382;2023-05-20T11:20:29;7.32;;;2.53;;
20069;SDS011;10195;50.868;4.382;2023-05-20T11:22:59;7.57;;;2.72;;
20069;SDS011;10195;50.868;4.382;2023-05-20T11:25:25;6.28;;;2.70;;
20069;SDS011;10195;50.868;4.382;2023-05-20T11:27:52;4.00;;;2.80;;
20069;SDS011;10195;50.868;4.382;2023-05-20T11:30:18;3.38;;;2.90;;
20069;SDS011;10195;50.868;4.382;2023-05-20T11:33:00;4.30;;;2.80;;
20069;SDS011;10195;50.868;4.382;2023-05-20T11:35:28;11.52;;;3.00;;
20069;SDS011;10195;50.868;4.382;2023-05-20T11:40:24;5.88;;;3.30;;
20069;SDS011;10195;50.868;4.382;2023-05-20T11:42:54;6.47;;;2.80;;
20069;SDS011;10195;50.868;4.382;2023-05-20T11:45:21;8.13;;;2.97;;
20069;SDS011;10195;50.868;4.382;2023-05-20T11:48:00;10.70;;;2.83;;
20069;SDS011;10195;50.868;4.382;2023-05-20T11:50:39;4.57;;;2.13;;
20069;SDS011;10195;50.868;4.382;2023-05-20T11:53:08;7.82;;;2.67;;
20069;SDS011;10195;50.868;4.382;2023-05-20T11:58:24;11.50;;;3.33;;
20069;SDS011;10195;50.868;4.382;2023-05-20T12:00:51;5.85;;;2.30;;
20069;SDS011;10195;50.868;4.382;2023-05-20T12:03:17;7.25;;;2.83;;
20069;SDS011;10195;50.868;4.382;2023-05-20T12:05:43;6.35;;;2.60;;
20069;SDS011;10195;50.868;4.382;2023-05-20T12:08:11;9.88;;;2.80;;
20069;SDS011;10195;50.868;4.382;2023-05-20T12:10:37;3.92;;;2.92;;
20069;SDS011;10195;50.868;4.382;2023-05-20T12:13:03;5.50;;;2.60;;
20069;SDS011;10195;50.868;4.382;2023-05-20T12:15:32;7.35;;;3.45;;
20069;SDS011;10195;50.868;4.382;2023-05-20T12:18:01;3.15;;;2.78;;
20069;SDS011;10195;50.868;4.382;2023-05-20T12:20:28;3.55;;;2.70;;
20069;SDS011;10195;50.868;4.382;2023-05-20T12:22:55;9.85;;;2.63;;
20069;SDS011;10195;50.868;4.382;2023-05-20T12:25:21;7.85;;;3.15;;
20069;SDS011;10195;50.868;4.382;2023-05-20T12:27:47;10.77;;;3.17;;
20069;SDS011;10195;50.868;4.382;2023-05-20T12:30:15;6.57;;;2.70;;
20069;SDS011;10195;50.868;4.382;2023-05-20T12:32:45;8.73;;;3.15;;
20069;SDS011;10195;50.868;4.382;2023-05-20T12:35:12;7.18;;;3.08;;
20069;SDS011;10195;50.868;4.382;2023-05-20T12:37:38;8.30;;;2.95;;
20069;SDS011;10195;50.868;4.382;2023-05-20T12:40:05;4.35;;;2.67;;
20069;SDS011;10195;50.868;4.382;2023-05-20T12:42:34;5.63;;;3.13;;
20069;SDS011;10195;50.868;4.382;2023-05-20T12:45:00;10.63;;;3.03;;
20069;SDS011;10195;50.868;4.382;2023-05-20T12:47:26;11.15;;;2.85;;
20069;SDS011;10195;50.868;4.382;2023-05-20T12:49:52;5.32;;;2.55;;
20069;SDS011;10195;50.868;4.382;2023-05-20T12:52:18;6.00;;;2.50;;
20069;SDS011;10195;50.868;4.382;2023-05-20T12:54:44;4.15;;;2.38;;
20069;SDS011;10195;50.868;4.382;2023-05-20T12:57:10;5.35;;;3.20;;
20069;SDS011;10195;50.868;4.382;2023-05-20T12:59:36;5.13;;;2.45;;
20069;SDS011;10195;50.868;4.382;2023-05-20T13:02:02;6.13;;;3.17;;
20069;SDS011;10195;50.868;4.382;2023-05-20T13:04:27;6.85;;;2.70;;
20069;SDS011;10195;50.868;4.382;2023-05-20T13:06:53;5.38;;;2.70;;
20069;SDS011;10195;50.868;4.382;2023-05-20T13:09:19;3.45;;;2.30;;
20069;SDS011;10195;50.868;4.382;2023-05-20T13:11:45;7.70;;;3.03;;
20069;SDS011;10195;50.868;4.382;2023-05-20T13:14:10;3.92;;;2.60;;
20069;SDS011;10195;50.868;4.382;2023-05-20T13:16:36;9.95;;;2.90;;
20069;SDS011;10195;50.868;4.382;2023-05-20T13:19:02;6.32;;;2.75;;
20069;SDS011;10195;50.868;4.382;2023-05-20T13:21:28;6.10;;;2.38;;
20069;SDS011;10195;50.868;4.382;2023-05-20T13:23:53;4.65;;;2.90;;
20069;SDS011;10195;50.868;4.382;2023-05-20T13:26:19;6.95;;;2.70;;
20069;SDS011;10195;50.868;4.382;2023-05-20T13:28:45;4.60;;;2.65;;
20069;SDS011;10195;50.868;4.382;2023-05-20T13:31:11;4.55;;;2.47;;
20069;SDS011;10195;50.868;4.382;2023-05-20T13:33:37;4.32;;;2.38;;
20069;SDS011;10195;50.868;4.382;2023-05-20T13:36:02;3.55;;;2.75;;
20069;SDS011;10195;50.868;4.382;2023-05-20T13:38:28;3.78;;;2.58;;
20069;SDS011;10195;50.868;4.382;2023-05-20T13:40:54;7.03;;;2.70;;
20069;SDS011;10195;50.868;4.382;2023-05-20T13:43:23;5.82;;;2.50;;
20069;SDS011;10195;50.868;4.382;2023-05-20T13:45:50;2.70;;;2.17;;
20069;SDS011;10195;50.868;4.382;2023-05-20T13:48:15;4.00;;;2.42;;
20069;SDS011;10195;50.868;4.382;2023-05-20T13:50:41;5.97;;;2.38;;
20069;SDS011;10195;50.868;4.382;2023-05-20T13:53:07;3.67;;;2.13;;
20069;SDS011;10195;50.868;4.382;2023-05-20T13:55:36;4.45;;;2.45;;
20069;SDS011;10195;50.868;4.382;2023-05-20T13:58:02;4.15;;;2.28;;
20069;SDS011;10195;50.868;4.382;2023-05-20T14:00:29;5.85;;;2.40;;
20069;SDS011;10195;50.868;4.382;2023-05-20T14:02:55;4.10;;;2.38;;
20069;SDS011;10195;50.868;4.382;2023-05-20T14:05:21;6.30;;;2.20;;
20069;SDS011;10195;50.868;4.382;2023-05-20T14:07:47;5.18;;;2.50;;
20069;SDS011;10195;50.868;4.382;2023-05-20T14:10:13;7.22;;;2.33;;
20069;SDS011;10195;50.868;4.382;2023-05-20T14:12:39;3.67;;;2.20;;
20069;SDS011;10195;50.868;4.382;2023-05-20T14:15:06;7.43;;;3.25;;
20069;SDS011;10195;50.868;4.382;2023-05-20T14:17:32;4.85;;;3.13;;
20069;SDS011;10195;50.868;4.382;2023-05-20T14:19:58;4.63;;;2.88;;
20069;SDS011;10195;50.868;4.382;2023-05-20T14:22:24;6.05;;;2.55;;
20069;SDS011;10195;50.868;4.382;2023-05-20T14:24:50;4.80;;;2.13;;
20069;SDS011;10195;50.868;4.382;2023-05-20T14:27:15;7.45;;;2.60;;
20069;SDS011;10195;50.868;4.382;2023-05-20T14:29:41;5.72;;;2.70;;
20069;SDS011;10195;50.868;4.382;2023-05-20T14:32:07;3.78;;;2.67;;
20069;SDS011;10195;50.868;4.382;2023-05-20T14:34:33;5.72;;;2.75;;
20069;SDS011;10195;50.868;4.382;2023-05-20T14:36:58;6.03;;;2.67;;
20069;SDS011;10195;50.868;4.382;2023-05-20T14:39:29;7.72;;;2.78;;
20069;SDS011;10195;50.868;4.382;2023-05-20T14:41:55;6.22;;;2.67;;
20069;SDS011;10195;50.868;4.382;2023-05-20T14:44:20;4.53;;;2.35;;
20069;SDS011;10195;50.868;4.382;2023-05-20T14:46:46;7.22;;;2.70;;
20069;SDS011;10195;50.868;4.382;2023-05-20T14:49:11;4.90;;;2.72;;
20069;SDS011;10195;50.868;4.382;2023-05-20T14:51:38;6.75;;;2.70;;
20069;SDS011;10195;50.868;4.382;2023-05-20T14:54:04;5.55;;;2.42;;
20069;SDS011;10195;50.868;4.382;2023-05-20T14:56:30;3.95;;;2.78;;
20069;SDS011;10195;50.868;4.382;2023-05-20T14:58:56;2.47;;;1.50;;